»·PEaware :: WAT3512 KBLI-KPDX

WAT3512 :: KBLI-KPDX

FLIGHT INFORMATION

Flight Status: Arrived
Operator:
Walker Air Transport
More flights by this operator :: More flights under this callsign
Pilot: Richard A. (43314)
Aircraft: EMBRAER PHENOM 300
(E55P)
More flights by this aircraft type
Origin: KBLI Bellingham Intl
United States
Destination: KPDX Portland Intl
United States
More flights between these airports :: More routes between these airports
Route: KLSHN1 CVV SEA BUWZO KRATR2
File this flight plan on PilotEdge
Remarks: RMK / SIMBRIEF
Altitude:
(Current/Filed)
29,000ft
Speed:
(Current/Filed)
437kts
Departed: 21-Aug-23 04:13 PM
Arrived: 21-Aug-23 04:58 PM
Distance/Time
Traveled:
192nm/0:45
Distance/Time
To Go:
Arrived

Flight Plot

Page will automatically refresh every two minutes.

Flight plan parsing failed; only flown route is shown


Map Options




Map Legend


Flown Route
Filed Route
Departure Airport
Arrival Airport
Navaid (VOR, NDB)
Fix

Horizontal Profiles

Position Reports

Time Latitude Longitude Heading Altitude Ground
Speed
21-Aug-23 15:35 48.790959 -122.534968 269 162ft 0kts
21-Aug-23 15:35 48.790959 -122.534968 269 162ft 0kts
21-Aug-23 15:36 48.790959 -122.534968 269 162ft 0kts
21-Aug-23 15:37 48.790959 -122.534968 269 162ft 0kts
21-Aug-23 15:38 48.790959 -122.534968 269 162ft 0kts
21-Aug-23 15:40 48.790959 -122.534968 269 162ft 0kts
21-Aug-23 15:40 48.790959 -122.534968 269 162ft 0kts
21-Aug-23 15:41 48.790959 -122.534968 269 162ft 0kts
21-Aug-23 15:42 48.790959 -122.534968 269 162ft 0kts
21-Aug-23 15:43 48.790959 -122.534968 269 162ft 0kts
21-Aug-23 15:44 48.790959 -122.534968 269 162ft 0kts
21-Aug-23 15:45 48.790959 -122.534968 269 162ft 0kts
21-Aug-23 15:46 48.790959 -122.534968 269 162ft 0kts
21-Aug-23 15:47 48.790959 -122.534968 269 162ft 0kts
21-Aug-23 15:48 48.790959 -122.534968 269 162ft 0kts
21-Aug-23 15:49 48.790959 -122.534968 269 162ft 0kts
21-Aug-23 15:50 48.790959 -122.534968 269 162ft 0kts
21-Aug-23 15:51 48.790959 -122.534968 269 162ft 0kts
21-Aug-23 15:52 48.790959 -122.534968 269 162ft 0kts
21-Aug-23 15:53 48.790959 -122.534968 269 162ft 0kts
21-Aug-23 15:54 48.790959 -122.534968 269 162ft 0kts
21-Aug-23 15:55 48.790959 -122.534968 269 162ft 0kts
21-Aug-23 15:56 48.790959 -122.534968 269 162ft 0kts
21-Aug-23 15:57 48.790959 -122.534968 269 162ft 0kts
21-Aug-23 15:58 48.790959 -122.534968 269 162ft 0kts
21-Aug-23 15:59 48.790959 -122.534968 269 162ft 0kts
21-Aug-23 16:00 48.790959 -122.534968 269 162ft 0kts
21-Aug-23 16:01 48.790959 -122.534968 269 162ft 0kts
21-Aug-23 16:02 48.790959 -122.534968 269 162ft 0kts
21-Aug-23 16:03 48.790959 -122.534968 269 162ft 0kts
21-Aug-23 16:04 48.791329 -122.535450 323 162ft 5kts
21-Aug-23 16:05 48.793610 -122.535831 358 160ft 11kts
21-Aug-23 16:06 48.797105 -122.535850 0 158ft 14kts
21-Aug-23 16:07 48.800850 -122.535655 3 150ft 13kts
21-Aug-23 16:08 48.801308 -122.535671 354 149ft 0kts
21-Aug-23 16:09 48.801308 -122.535671 354 149ft 0kts
21-Aug-23 16:10 48.801308 -122.535671 354 149ft 0kts
21-Aug-23 16:11 48.801753 -122.536130 279 148ft 8kts
21-Aug-23 16:12 48.792995 -122.537496 181 201ft 152kts
21-Aug-23 16:13 48.737230 -122.547453 199 5659ft 231kts
21-Aug-23 16:14 48.678266 -122.573595 192 11868ft 231kts
21-Aug-23 16:15 48.615419 -122.594737 191 16739ft 238kts
21-Aug-23 16:16 48.547446 -122.619731 195 20014ft 255kts
21-Aug-23 16:17 48.477141 -122.643815 195 23092ft 262kts
21-Aug-23 16:18 48.406107 -122.668575 195 25891ft 264kts
21-Aug-23 16:19 48.334424 -122.693453 194 28334ft 267kts
21-Aug-23 16:20 48.260281 -122.719059 194 29713ft 295kts
21-Aug-23 16:21 48.171381 -122.686512 166 29707ft 364kts
21-Aug-23 16:22 48.073523 -122.635487 167 29710ft 374kts
21-Aug-23 16:23 47.975158 -122.584740 166 29707ft 376kts
21-Aug-23 16:24 47.876358 -122.533941 166 29727ft 374kts
21-Aug-23 16:25 47.777779 -122.483486 166 29779ft 381kts
21-Aug-23 16:26 47.678708 -122.432957 166 29774ft 371kts
21-Aug-23 16:27 47.579951 -122.382808 165 29817ft 381kts
21-Aug-23 16:28 47.480937 -122.332636 166 29809ft 375kts
21-Aug-23 16:29 47.378906 -122.309484 182 28562ft 389kts
21-Aug-23 16:30 47.270488 -122.309592 183 25344ft 388kts
21-Aug-23 16:31 47.162966 -122.309650 183 22117ft 385kts
21-Aug-23 16:32 47.061371 -122.309642 183 18879ft 354kts
21-Aug-23 16:33 46.966862 -122.309690 182 15684ft 322kts
21-Aug-23 16:34 46.881935 -122.309627 181 14522ft 300kts
21-Aug-23 16:35 46.800368 -122.309598 181 13517ft 282kts
21-Aug-23 16:36 46.723534 -122.309620 181 12712ft 281kts
21-Aug-23 16:37 46.647162 -122.309610 181 12406ft 268kts
21-Aug-23 16:38 46.572079 -122.309582 181 12399ft 272kts
21-Aug-23 16:39 46.496038 -122.309594 181 12396ft 274kts
21-Aug-23 16:40 46.419532 -122.309616 181 12403ft 275kts
21-Aug-23 16:41 46.343001 -122.309607 181 12414ft 274kts
21-Aug-23 16:42 46.266803 -122.309612 181 12426ft 275kts
21-Aug-23 16:43 46.194885 -122.344226 202 12130ft 273kts
21-Aug-23 16:44 46.125462 -122.382908 201 11599ft 264kts
21-Aug-23 16:45 46.057267 -122.420335 201 11418ft 259kts
21-Aug-23 16:46 45.990093 -122.456539 201 11154ft 264kts
21-Aug-23 16:47 45.919464 -122.493748 212 10421ft 275kts
21-Aug-23 16:48 45.867960 -122.563184 222 9126ft 238kts
21-Aug-23 16:49 45.821149 -122.624698 223 7754ft 221kts
21-Aug-23 16:50 45.776731 -122.683040 221 6492ft 214kts
21-Aug-23 16:51 45.731867 -122.737488 221 5124ft 208kts
21-Aug-23 16:52 45.686440 -122.772557 180 3986ft 185kts
21-Aug-23 16:53 45.649204 -122.736120 117 3320ft 162kts
21-Aug-23 16:54 45.628405 -122.682387 119 2155ft 142kts
21-Aug-23 16:55 45.609362 -122.633479 117 631ft 127kts
21-Aug-23 16:56 45.593913 -122.593301 118 32ft 111kts
21-Aug-23 16:57 45.584641 -122.569678 129 21ft 24kts
21-Aug-23 16:58 45.583820 -122.570671 299 21ft 9kts
21-Aug-23 16:59 45.585607 -122.575253 300 20ft 15kts
21-Aug-23 17:00 45.585183 -122.577713 241 21ft 5kts
21-Aug-23 17:01 45.585420 -122.578505 297 20ft 0kts

Navigation Log

Ident Type
Flight plan parsing failed, navigation log unavailable